createdAt,value
2018-10-18T00:00:41.713Z,107.30
2018-10-18T00:01:41.599Z,108.70
2018-10-18T00:02:41.665Z,110.80
2018-10-18T00:03:41.551Z,103.80
2018-10-18T00:04:41.572Z,105.40
2018-10-18T00:05:41.494Z,105.00
2018-10-18T00:06:41.485Z,101.30
2018-10-18T00:07:41.445Z,103.60
2018-10-18T00:08:41.516Z,101.30
2018-10-18T00:09:41.397Z,101.10
2018-10-18T00:10:41.421Z,101.40
2018-10-18T00:11:41.357Z,103.60
2018-10-18T00:12:41.423Z,105.20
2018-10-18T00:13:41.290Z,106.60
2018-10-18T00:14:41.336Z,107.40
2018-10-18T00:15:41.248Z,103.70
2018-10-18T00:16:41.252Z,106.70
2018-10-18T00:17:41.185Z,104.50
2018-10-18T00:18:41.257Z,108.90
2018-10-18T00:19:41.154Z,107.00
2018-10-18T00:20:41.187Z,105.20
2018-10-18T00:21:41.090Z,110.00
2018-10-18T00:23:27.333Z,109.60
2018-10-18T00:24:27.290Z,103.60
2018-10-18T00:25:27.268Z,109.60
2018-10-18T00:26:27.245Z,105.00
2018-10-18T00:27:27.208Z,104.70
2018-10-18T00:28:27.199Z,105.40
2018-10-18T00:29:27.164Z,111.70
2018-10-18T00:30:27.138Z,118.00
2018-10-18T00:31:27.119Z,118.00
2018-10-18T00:32:27.117Z,115.20
2018-10-18T00:33:27.055Z,112.80
2018-10-18T00:34:27.038Z,120.90
2018-10-18T00:35:27.006Z,113.30
2018-10-18T00:36:27.041Z,116.00
2018-10-18T00:37:26.967Z,113.40
2018-10-18T00:38:26.929Z,117.40
2018-10-18T00:39:26.905Z,110.10
2018-10-18T00:40:26.969Z,118.30
2018-10-18T00:41:26.853Z,112.10
2018-10-18T00:42:26.825Z,115.00
2018-10-18T00:43:26.833Z,110.20
2018-10-18T00:44:26.776Z,114.30
2018-10-18T00:45:26.864Z,111.90
2018-10-18T00:46:26.730Z,120.70
2018-10-18T00:47:26.706Z,121.30
2018-10-18T00:48:26.765Z,122.60
2018-10-18T00:50:12.591Z,112.60
2018-10-18T00:51:12.479Z,108.40
2018-10-18T00:52:12.557Z,105.40
2018-10-18T00:53:12.416Z,107.60
2018-10-18T00:54:12.479Z,104.00
2018-10-18T00:55:12.378Z,102.70
2018-10-18T00:56:12.371Z,97.20
2018-10-18T00:57:12.317Z,90.30
2018-10-18T00:58:12.295Z,84.90
2018-10-18T00:59:12.314Z,90.70
2018-10-18T01:00:12.320Z,83.20
2018-10-18T01:01:12.221Z,91.50
2018-10-18T01:02:12.243Z,85.90
2018-10-18T01:03:12.171Z,75.70
2018-10-18T01:04:58.606Z,82.40
2018-10-18T01:05:58.619Z,74.30
2018-10-18T01:06:58.543Z,68.20
2018-10-18T01:07:58.551Z,69.70
2018-10-18T01:08:58.502Z,70.00
2018-10-18T01:09:58.465Z,68.10
2018-10-18T01:10:58.445Z,65.90
2018-10-18T01:11:58.449Z,65.70
2018-10-18T01:12:58.389Z,64.20
2018-10-18T01:13:58.427Z,60.20
2018-10-18T01:14:58.339Z,56.90
2018-10-18T01:15:58.318Z,61.90
2018-10-18T01:16:58.331Z,62.80
2018-10-18T01:17:58.276Z,62.90
2018-10-18T01:18:58.347Z,58.10
2018-10-18T01:19:58.222Z,58.80
2018-10-18T01:20:59.281Z,60.90
2018-10-18T01:21:58.161Z,54.20
2018-10-18T01:22:58.169Z,52.60
2018-10-18T01:23:58.132Z,59.00
2018-10-18T01:24:58.181Z,55.00
2018-10-18T01:25:58.115Z,54.90
2018-10-18T01:26:58.104Z,58.10
2018-10-18T01:27:58.000Z,52.80
2018-10-18T01:28:58.010Z,54.80
2018-10-18T01:29:58.023Z,50.60
2018-10-18T01:30:58.027Z,52.10
2018-10-18T01:31:57.946Z,51.50
2018-10-18T01:33:43.952Z,50.60
2018-10-18T01:34:43.960Z,53.70
2018-10-18T01:35:43.814Z,49.80
2018-10-18T01:36:43.846Z,48.20
2018-10-18T01:37:43.835Z,52.90
2018-10-18T01:38:43.740Z,48.60
2018-10-18T01:39:43.714Z,49.80
2018-10-18T01:40:43.697Z,49.70
2018-10-18T01:41:43.800Z,44.90
2018-10-18T01:42:43.642Z,52.20
2018-10-18T01:43:43.679Z,47.20
2018-10-18T01:44:43.592Z,48.30
2018-10-18T01:45:43.585Z,46.10
2018-10-18T01:46:43.544Z,53.70
2018-10-18T01:47:43.595Z,47.10
2018-10-18T01:48:43.477Z,47.30
2018-10-18T01:50:34.363Z,44.50
2018-10-18T01:51:34.406Z,43.40
2018-10-18T01:52:34.291Z,46.60
2018-10-18T01:53:34.271Z,45.10
2018-10-18T01:54:34.324Z,43.00
2018-10-18T01:55:34.214Z,43.00
2018-10-18T01:56:34.198Z,45.00
2018-10-18T01:57:34.171Z,43.60
2018-10-18T01:58:34.241Z,44.60
2018-10-18T01:59:34.121Z,37.50
2018-10-18T02:00:34.093Z,44.00
2018-10-18T02:01:34.068Z,43.00
2018-10-18T02:02:34.060Z,43.30
2018-10-18T02:03:34.009Z,40.00
2018-10-18T02:04:34.004Z,44.60
2018-10-18T02:05:33.954Z,42.20
2018-10-18T02:06:35.049Z,40.40
2018-10-18T02:07:33.904Z,41.40
2018-10-18T02:08:33.881Z,43.50
2018-10-18T02:09:33.864Z,43.70
2018-10-18T02:10:33.914Z,41.30
2018-10-18T02:11:33.829Z,41.00
2018-10-18T02:12:33.782Z,45.10
2018-10-18T02:13:33.844Z,42.10
2018-10-18T02:14:33.731Z,43.20
2018-10-18T02:15:33.751Z,40.00
2018-10-18T02:16:33.688Z,44.20
2018-10-18T02:18:19.693Z,44.50
2018-10-18T02:19:19.728Z,35.50
2018-10-18T02:20:19.541Z,40.80
2018-10-18T02:21:19.556Z,37.20
2018-10-18T02:22:19.490Z,35.00
2018-10-18T02:23:19.465Z,38.50
2018-10-18T02:24:19.473Z,41.50
2018-10-18T02:25:19.456Z,37.80
2018-10-18T02:26:19.381Z,40.00
2018-10-18T02:27:19.391Z,36.80
2018-10-18T02:28:19.356Z,38.40
2018-10-18T02:29:19.304Z,41.20
2018-10-18T02:30:19.444Z,38.10
2018-10-18T02:31:19.314Z,40.70
2018-10-18T02:32:19.222Z,33.60
2018-10-18T02:33:19.227Z,39.10
2018-10-18T02:34:19.173Z,39.90
2018-10-18T02:36:05.171Z,37.90
2018-10-18T02:37:05.045Z,40.40
2018-10-18T02:38:05.016Z,37.40
2018-10-18T02:39:04.990Z,36.50
2018-10-18T02:40:04.962Z,36.80
2018-10-18T02:41:04.946Z,37.20
2018-10-18T02:42:04.949Z,34.80
2018-10-18T02:43:04.962Z,35.40
2018-10-18T02:44:04.860Z,37.50
2018-10-18T02:45:04.877Z,39.60
2018-10-18T02:46:11.328Z,38.60
2018-10-18T02:47:51.158Z,39.30
2018-10-18T02:48:51.095Z,32.90
2018-10-18T02:49:51.075Z,38.20
2018-10-18T02:50:51.070Z,38.20
2018-10-18T02:51:51.019Z,35.00
2018-10-18T02:52:51.088Z,32.70
2018-10-18T02:53:50.976Z,38.40
2018-10-18T02:54:50.994Z,36.40
2018-10-18T02:55:50.914Z,37.10
2018-10-18T02:56:51.013Z,35.80
2018-10-18T02:57:50.872Z,37.70
2018-10-18T02:58:50.930Z,37.20
2018-10-18T03:00:36.757Z,37.20
2018-10-18T03:01:36.742Z,32.50
2018-10-18T03:02:36.709Z,34.20
2018-10-18T03:03:36.675Z,39.80
2018-10-18T03:04:36.650Z,32.40
2018-10-18T03:05:36.627Z,32.30
2018-10-18T03:06:36.600Z,32.90
2018-10-18T03:07:36.570Z,36.10
2018-10-18T03:08:36.613Z,32.30
2018-10-18T03:09:36.525Z,32.30
2018-10-18T03:10:36.497Z,30.90
2018-10-18T03:11:36.536Z,30.40
2018-10-18T03:12:36.590Z,31.40
2018-10-18T03:13:36.449Z,32.00
2018-10-18T03:14:36.393Z,38.40
2018-10-18T03:15:36.457Z,32.50
2018-10-18T03:16:36.337Z,33.00
2018-10-18T03:17:36.370Z,36.80
2018-10-18T03:18:36.307Z,31.60
2018-10-18T03:19:36.385Z,29.60
2018-10-18T03:20:36.242Z,36.60
2018-10-18T03:21:36.289Z,30.80
2018-10-18T03:22:36.195Z,37.20
2018-10-18T03:23:36.208Z,37.20
2018-10-18T03:24:36.142Z,34.70
2018-10-18T03:25:36.220Z,34.10
2018-10-18T03:26:36.089Z,30.90
2018-10-18T03:27:36.128Z,35.40
2018-10-18T03:28:36.048Z,31.40
2018-10-18T03:29:36.012Z,34.40
2018-10-18T03:30:35.991Z,33.50
2018-10-18T03:31:36.054Z,30.50
2018-10-18T03:32:35.952Z,28.70
2018-10-18T03:33:35.906Z,35.90
2018-10-18T03:35:21.700Z,33.10
2018-10-18T03:36:21.754Z,31.70
2018-10-18T03:37:21.683Z,29.20
2018-10-18T03:38:21.664Z,32.80
2018-10-18T03:39:21.588Z,31.00
2018-10-18T03:40:21.676Z,30.80
2018-10-18T03:41:21.602Z,31.50
2018-10-18T03:42:21.602Z,27.30
2018-10-18T03:43:21.486Z,29.70
2018-10-18T03:44:21.502Z,31.00
2018-10-18T03:45:21.436Z,27.20
2018-10-18T03:46:21.516Z,25.80
2018-10-18T03:47:21.382Z,27.60
2018-10-18T03:48:21.394Z,27.90
2018-10-18T03:49:21.334Z,27.90
2018-10-18T03:50:21.385Z,28.20
2018-10-18T03:51:21.288Z,30.10
2018-10-18T03:52:21.291Z,34.70
2018-10-18T03:53:21.234Z,34.10
2018-10-18T03:54:21.310Z,35.00
2018-10-18T03:55:21.176Z,29.90
2018-10-18T03:56:21.220Z,28.90
2018-10-18T03:57:21.132Z,29.80
2018-10-18T03:58:21.140Z,30.10
2018-10-18T03:59:21.076Z,30.40
2018-10-18T04:00:22.103Z,31.60
2018-10-18T04:01:21.027Z,29.30
2018-10-18T04:02:21.054Z,30.00
2018-10-18T04:03:20.972Z,30.00
2018-10-18T04:04:20.965Z,30.80
2018-10-18T04:05:20.919Z,34.20
2018-10-18T04:06:21.061Z,33.70
2018-10-18T04:07:20.868Z,30.90
2018-10-18T04:08:20.894Z,31.90
2018-10-18T04:09:20.824Z,31.20
2018-10-18T04:10:20.803Z,33.50
2018-10-18T04:11:20.770Z,28.70
2018-10-18T04:12:21.953Z,29.70
2018-10-18T04:13:20.736Z,29.30
2018-10-18T04:14:20.727Z,33.80
2018-10-18T04:15:20.672Z,30.00
2018-10-18T04:16:20.745Z,33.20
2018-10-18T04:17:20.618Z,33.20
2018-10-18T04:18:20.702Z,31.80
2018-10-18T04:19:20.562Z,31.90
2018-10-18T04:20:20.563Z,32.40
2018-10-18T04:21:20.509Z,29.90
2018-10-18T04:22:20.581Z,33.30
2018-10-18T04:23:20.467Z,30.90
2018-10-18T04:24:20.491Z,34.90
2018-10-18T04:25:20.456Z,31.70
2018-10-18T04:26:20.399Z,31.80
2018-10-18T04:27:20.354Z,34.20
2018-10-18T04:28:20.424Z,30.80
2018-10-18T04:29:20.302Z,30.90
2018-10-18T04:30:20.442Z,32.60
2018-10-18T04:31:20.260Z,32.60
2018-10-18T04:32:20.235Z,31.00
2018-10-18T04:33:20.198Z,31.70
2018-10-18T04:34:20.260Z,36.90
2018-10-18T04:35:20.153Z,33.30
2018-10-18T04:36:20.253Z,31.70
2018-10-18T04:37:20.168Z,31.30
2018-10-18T04:38:20.180Z,31.90
2018-10-18T04:39:20.051Z,30.40
2018-10-18T04:40:20.086Z,33.20
2018-10-18T04:41:20.001Z,33.40
2018-10-18T04:42:20.003Z,31.80
2018-10-18T04:43:19.941Z,29.60
2018-10-18T04:44:21.030Z,32.70
2018-10-18T04:45:19.897Z,34.00
2018-10-18T04:46:19.927Z,29.80
2018-10-18T04:47:19.935Z,31.40
2018-10-18T04:48:20.934Z,31.40
2018-10-18T04:49:19.788Z,27.60
2018-10-18T04:50:19.862Z,32.90
2018-10-18T04:51:19.733Z,29.20
2018-10-18T04:52:19.738Z,27.40
2018-10-18T04:53:19.678Z,30.30
2018-10-18T04:54:19.737Z,29.20
2018-10-18T04:55:19.628Z,29.90
2018-10-18T04:56:19.651Z,30.50
2018-10-18T04:57:19.577Z,29.40
2018-10-18T04:58:19.659Z,27.70
2018-10-18T04:59:19.529Z,28.40
2018-10-18T05:00:19.546Z,26.20
2018-10-18T05:01:19.572Z,27.60
2018-10-18T05:02:19.491Z,25.50
2018-10-18T05:03:19.432Z,25.40
2018-10-18T05:04:19.515Z,25.10
2018-10-18T05:05:19.376Z,26.30
2018-10-18T05:06:19.414Z,24.40
2018-10-18T05:07:19.414Z,28.90
2018-10-18T05:08:19.339Z,26.60
2018-10-18T05:09:19.272Z,22.20
2018-10-18T05:10:19.348Z,24.30
2018-10-18T05:11:19.243Z,24.00
2018-10-18T05:12:19.276Z,65.20
2018-10-18T05:13:19.229Z,31.30
2018-10-18T05:14:19.160Z,23.00
2018-10-18T05:16:08.095Z,29.50
2018-10-18T05:17:08.158Z,21.60
2018-10-18T05:18:08.068Z,27.10
2018-10-18T05:19:08.094Z,23.90
2018-10-18T05:20:08.009Z,20.50
2018-10-18T05:21:08.022Z,20.70
2018-10-18T05:22:07.916Z,20.70
2018-10-18T05:23:07.892Z,20.40
2018-10-18T05:24:07.876Z,21.60
2018-10-18T05:25:07.962Z,21.70
2018-10-18T05:26:07.817Z,20.60
2018-10-18T05:27:07.784Z,23.50
2018-10-18T05:28:07.762Z,21.90
2018-10-18T05:29:07.798Z,20.80
2018-10-18T05:30:07.711Z,23.70
2018-10-18T05:31:54.908Z,28.30
2018-10-18T05:32:55.955Z,21.00
2018-10-18T05:33:54.832Z,19.30
2018-10-18T05:34:54.795Z,20.80
2018-10-18T05:35:54.780Z,23.10
2018-10-18T05:36:54.835Z,21.80
2018-10-18T05:37:54.721Z,24.20
2018-10-18T05:38:54.694Z,21.30
2018-10-18T05:39:54.664Z,22.50
2018-10-18T05:40:54.665Z,23.60
2018-10-18T05:41:54.680Z,35.00
2018-10-18T05:42:54.597Z,27.60
2018-10-18T05:43:54.561Z,24.40
2018-10-18T05:44:54.532Z,23.60
2018-10-18T05:45:54.518Z,23.40
2018-10-18T05:46:55.532Z,25.40
2018-10-18T05:47:54.469Z,23.00
2018-10-18T05:48:54.456Z,24.20
2018-10-18T05:49:54.421Z,20.80
2018-10-18T05:50:54.391Z,22.10
2018-10-18T05:51:54.443Z,29.10
2018-10-18T05:52:54.388Z,25.20
2018-10-18T05:54:41.114Z,26.60
2018-10-18T05:55:41.076Z,24.90
2018-10-18T05:56:41.051Z,27.90
2018-10-18T05:57:41.065Z,23.10
2018-10-18T05:58:40.990Z,24.30
2018-10-18T05:59:40.974Z,23.10
2018-10-18T06:00:40.989Z,27.60
2018-10-18T06:01:40.925Z,28.40
2018-10-18T06:02:40.892Z,23.20
2018-10-18T06:03:40.883Z,26.80
2018-10-18T06:04:40.841Z,23.40
2018-10-18T06:05:40.922Z,30.00
2018-10-18T06:06:40.806Z,22.70
2018-10-18T06:08:29.123Z,27.20
2018-10-18T06:09:29.084Z,23.60
2018-10-18T06:10:29.127Z,22.90
2018-10-18T06:11:29.182Z,22.90
2018-10-18T06:12:29.023Z,25.30
2018-10-18T06:13:29.170Z,22.30
2018-10-18T06:14:29.017Z,19.90
2018-10-18T06:16:17.002Z,30.60
2018-10-18T06:17:16.968Z,22.70
2018-10-18T06:18:17.103Z,22.10
2018-10-18T06:19:17.028Z,23.40
2018-10-18T06:20:16.957Z,21.30
2018-10-18T06:21:16.868Z,20.00
2018-10-18T06:22:16.827Z,23.40
2018-10-18T06:23:17.074Z,21.20
2018-10-18T06:24:16.775Z,20.50
2018-10-18T06:25:16.996Z,21.20
2018-10-18T06:26:16.771Z,19.90
2018-10-18T06:27:16.795Z,22.10
2018-10-18T06:28:16.674Z,21.90
2018-10-18T06:29:16.892Z,20.80
2018-10-18T06:30:16.637Z,20.60
2018-10-18T06:31:16.729Z,23.40
2018-10-18T06:32:16.569Z,16.60
2018-10-18T06:33:16.637Z,18.70
2018-10-18T06:34:16.523Z,21.20
2018-10-18T06:36:03.528Z,18.60
2018-10-18T06:37:03.578Z,19.50
2018-10-18T06:38:03.468Z,18.60
2018-10-18T06:39:03.477Z,20.90
2018-10-18T06:40:03.408Z,20.60
2018-10-18T06:41:03.428Z,16.80
2018-10-18T06:42:03.355Z,18.60
2018-10-18T06:43:03.497Z,21.10
2018-10-18T06:44:03.308Z,19.90
2018-10-18T06:45:03.337Z,17.10
2018-10-18T06:46:03.259Z,17.50
2018-10-18T06:47:03.333Z,20.20
2018-10-18T06:48:03.271Z,26.30
2018-10-18T06:49:03.365Z,17.30
2018-10-18T06:50:03.165Z,19.80
2018-10-18T06:51:03.168Z,24.50
2018-10-18T06:52:50.068Z,20.70
2018-10-18T06:53:50.039Z,17.70
2018-10-18T06:55:44.265Z,16.10
2018-10-18T06:56:44.266Z,20.70
2018-10-18T06:57:44.177Z,17.90
2018-10-18T06:58:44.177Z,18.20
2018-10-18T06:59:44.162Z,18.70
2018-10-18T07:00:44.181Z,16.30
2018-10-18T07:01:44.072Z,17.60
2018-10-18T07:02:44.095Z,17.10
2018-10-18T07:03:44.013Z,17.80
2018-10-18T07:04:44.009Z,18.20
2018-10-18T07:05:30.053Z,19.10
2018-10-18T07:06:30.009Z,18.10
2018-10-18T07:07:29.981Z,17.20
2018-10-18T07:08:30.051Z,19.20
2018-10-18T07:09:29.931Z,17.60
2018-10-18T07:10:30.071Z,14.80
2018-10-18T07:11:29.877Z,15.90
2018-10-18T07:12:30.025Z,17.60
2018-10-18T07:13:29.829Z,17.10
2018-10-18T07:14:29.802Z,18.60
2018-10-18T07:15:29.838Z,19.70
2018-10-18T07:16:29.789Z,18.90
2018-10-18T07:17:29.769Z,14.90
2018-10-18T07:18:29.706Z,18.80
2018-10-18T07:19:30.789Z,14.70
2018-10-18T07:20:29.664Z,13.40
2018-10-18T07:21:29.675Z,15.20
2018-10-18T07:22:29.595Z,13.90
2018-10-18T07:23:29.587Z,18.80
2018-10-18T07:24:29.545Z,13.90
2018-10-18T07:25:29.622Z,15.10
2018-10-18T07:26:29.505Z,14.80
2018-10-18T07:27:29.536Z,14.20
2018-10-18T07:28:29.468Z,15.10
2018-10-18T07:29:29.416Z,15.80
2018-10-18T07:30:29.388Z,15.20
2018-10-18T07:32:15.688Z,18.80
2018-10-18T07:33:15.730Z,15.40
2018-10-18T07:34:15.627Z,13.30
2018-10-18T07:35:15.661Z,15.20
2018-10-18T07:36:15.757Z,18.00
2018-10-18T07:37:15.667Z,18.20
2018-10-18T07:39:01.987Z,18.70
2018-10-18T07:40:02.052Z,14.80
2018-10-18T07:41:01.931Z,13.10
2018-10-18T07:42:01.974Z,14.30
2018-10-18T07:43:01.970Z,13.60
2018-10-18T07:44:01.853Z,12.90
2018-10-18T07:45:01.858Z,15.10
2018-10-18T07:46:01.801Z,15.60
2018-10-18T07:47:01.892Z,13.90
2018-10-18T07:48:01.765Z,13.90
2018-10-18T07:49:01.724Z,16.00
2018-10-18T07:50:01.689Z,16.40
2018-10-18T07:51:01.765Z,14.90
2018-10-18T07:52:01.645Z,15.30
2018-10-18T07:53:01.635Z,14.80
2018-10-18T07:54:01.623Z,13.70
2018-10-18T07:55:01.635Z,16.20
2018-10-18T07:56:01.539Z,15.50
2018-10-18T07:57:01.508Z,14.90
2018-10-18T07:58:01.500Z,13.60
2018-10-18T07:59:01.469Z,15.30
2018-10-18T08:00:01.523Z,14.60
2018-10-18T08:01:01.471Z,14.30
2018-10-18T08:02:01.386Z,15.20
2018-10-18T08:03:01.372Z,14.00
2018-10-18T08:04:01.341Z,15.70
2018-10-18T08:05:47.702Z,18.10
2018-10-18T08:06:47.659Z,12.90
2018-10-18T08:07:47.635Z,13.90
2018-10-18T08:08:47.609Z,13.60
2018-10-18T08:09:47.601Z,16.20
2018-10-18T08:10:47.585Z,16.50
2018-10-18T08:11:47.534Z,13.50
2018-10-18T08:12:47.515Z,14.80
2018-10-18T08:13:47.499Z,16.00
2018-10-18T08:14:47.456Z,15.80
2018-10-18T08:15:47.429Z,14.00
2018-10-18T08:16:47.545Z,15.30
2018-10-18T08:17:47.391Z,13.60
2018-10-18T08:18:47.353Z,13.90
2018-10-18T08:19:47.326Z,12.20
2018-10-18T08:21:34.229Z,13.10
2018-10-18T08:22:34.228Z,14.50
2018-10-18T08:23:34.277Z,15.40
2018-10-18T08:24:34.133Z,13.00
2018-10-18T08:25:34.135Z,12.50
2018-10-18T08:26:34.091Z,12.80
2018-10-18T08:27:35.127Z,10.90
2018-10-18T08:28:34.065Z,9.80
2018-10-18T08:29:34.018Z,13.20
2018-10-18T08:30:33.991Z,10.80
2018-10-18T08:31:34.048Z,10.70
2018-10-18T08:32:33.936Z,10.30
2018-10-18T08:33:33.910Z,10.80
2018-10-18T08:34:33.883Z,11.80
2018-10-18T08:35:33.943Z,10.80
2018-10-18T08:36:33.833Z,10.70
2018-10-18T08:37:33.858Z,12.40
2018-10-18T08:38:33.780Z,11.30
2018-10-18T08:39:33.867Z,12.10
2018-10-18T08:41:20.127Z,16.80
2018-10-18T08:42:20.164Z,10.60
2018-10-18T08:43:20.067Z,15.30
2018-10-18T08:44:20.107Z,16.80
2018-10-18T08:45:20.021Z,11.20
2018-10-18T08:46:20.189Z,10.40
2018-10-18T08:47:19.956Z,10.80
2018-10-18T08:48:19.997Z,10.00
2018-10-18T08:49:19.905Z,8.40
2018-10-18T08:50:19.908Z,9.90
2018-10-18T08:51:19.861Z,8.60
2018-10-18T08:52:19.959Z,10.10
2018-10-18T08:53:19.814Z,9.40
2018-10-18T08:54:19.782Z,8.60
2018-10-18T08:55:19.970Z,10.00
2018-10-18T08:56:19.739Z,10.70
2018-10-18T08:57:19.717Z,11.60
2018-10-18T08:58:19.683Z,12.30
2018-10-18T08:59:19.917Z,11.50
2018-10-18T09:00:19.661Z,11.00
2018-10-18T09:01:19.686Z,10.20
2018-10-18T09:02:19.592Z,10.50
2018-10-18T09:03:19.583Z,10.90
2018-10-18T09:04:19.543Z,11.30
2018-10-18T09:05:19.590Z,9.70
2018-10-18T09:06:19.471Z,9.10
2018-10-18T09:07:20.527Z,9.50
2018-10-18T09:08:19.431Z,9.80
2018-10-18T09:09:19.437Z,9.20
2018-10-18T09:10:19.374Z,10.30
2018-10-18T09:12:05.336Z,11.80
2018-10-18T09:13:05.366Z,8.00
2018-10-18T09:14:05.263Z,11.20
2018-10-18T09:15:05.341Z,8.60
2018-10-18T09:16:05.239Z,8.40
2018-10-18T09:17:05.231Z,9.60
2018-10-18T09:18:05.152Z,8.20
2018-10-18T09:19:05.172Z,8.60
2018-10-18T09:20:05.099Z,8.60
2018-10-18T09:21:05.166Z,7.30
2018-10-18T09:22:05.051Z,7.90
2018-10-18T09:23:05.085Z,8.00
2018-10-18T09:24:04.996Z,8.40
2018-10-18T09:25:05.165Z,8.60
2018-10-18T09:26:04.957Z,8.20
2018-10-18T09:27:05.005Z,6.80
2018-10-18T09:28:04.897Z,8.90
2018-10-18T09:29:04.926Z,7.00
2018-10-18T09:30:04.853Z,9.80
2018-10-18T09:31:04.951Z,7.10
2018-10-18T09:32:04.791Z,8.90
2018-10-18T09:33:04.946Z,9.80
2018-10-18T09:34:04.747Z,6.30
2018-10-18T09:35:04.862Z,8.60
2018-10-18T09:36:04.692Z,8.10
2018-10-18T09:37:04.806Z,13.50
2018-10-18T09:37:51.149Z,12.30
2018-10-18T09:38:51.163Z,9.90
2018-10-18T09:40:44.971Z,8.80
2018-10-18T09:41:44.910Z,7.30
2018-10-18T09:42:45.025Z,7.30
2018-10-18T09:43:44.802Z,10.40
2018-10-18T09:44:44.995Z,8.00
2018-10-18T09:45:44.751Z,8.30
2018-10-18T09:46:44.818Z,8.70
2018-10-18T09:47:44.702Z,8.00
2018-10-18T09:48:44.835Z,8.00
2018-10-18T09:49:44.651Z,7.60
2018-10-18T09:50:44.751Z,7.90
2018-10-18T09:51:44.610Z,8.30
2018-10-18T09:52:44.771Z,9.10
2018-10-18T09:53:44.548Z,7.40
2018-10-18T09:54:44.676Z,9.00
2018-10-18T09:55:44.575Z,8.20
2018-10-18T09:56:44.579Z,8.50
2018-10-18T09:57:44.453Z,12.10
2018-10-18T09:58:44.588Z,6.80
2018-10-18T09:59:44.396Z,10.80
2018-10-18T10:01:31.269Z,8.60
2018-10-18T10:02:32.349Z,8.00
2018-10-18T10:03:31.228Z,8.90
2018-10-18T10:04:31.328Z,5.00
2018-10-18T10:05:31.147Z,6.00
2018-10-18T10:06:32.261Z,5.90
2018-10-18T10:07:31.108Z,8.10
2018-10-18T10:08:31.252Z,7.90
2018-10-18T10:09:31.057Z,6.70
2018-10-18T10:10:31.166Z,8.90
2018-10-18T10:11:31.014Z,8.40
2018-10-18T10:12:31.072Z,6.60
2018-10-18T10:13:31.019Z,9.40
2018-10-18T10:14:30.978Z,8.80
2018-10-18T10:15:30.902Z,9.10
2018-10-18T10:16:30.951Z,7.00
2018-10-18T10:17:30.889Z,9.10
2018-10-18T10:18:30.987Z,7.60
2018-10-18T10:19:17.100Z,15.70
2018-10-18T10:20:16.993Z,8.50
2018-10-18T10:21:16.946Z,7.80
2018-10-18T10:22:16.926Z,8.00
2018-10-18T10:23:16.898Z,8.50
2018-10-18T10:24:16.864Z,8.60
2018-10-18T10:25:16.946Z,8.20
2018-10-18T10:26:16.820Z,8.60
2018-10-18T10:27:16.801Z,8.70
2018-10-18T10:28:16.766Z,8.00
2018-10-18T10:29:16.739Z,9.40
2018-10-18T10:30:16.750Z,10.60
2018-10-18T10:31:16.795Z,9.20
2018-10-18T10:32:16.684Z,8.70
2018-10-18T10:33:16.672Z,8.90
2018-10-18T10:34:16.610Z,11.10
2018-10-18T10:35:16.652Z,11.10
2018-10-18T10:36:16.572Z,11.00
2018-10-18T10:37:16.731Z,11.10
2018-10-18T10:38:16.511Z,10.20
2018-10-18T10:40:02.950Z,13.10
2018-10-18T10:41:02.880Z,8.60
2018-10-18T10:42:03.128Z,8.00
2018-10-18T10:43:02.866Z,9.60
2018-10-18T10:44:03.008Z,12.30
2018-10-18T10:45:02.795Z,9.30
2018-10-18T10:46:02.867Z,11.30
2018-10-18T10:47:02.687Z,12.30
2018-10-18T10:48:02.844Z,12.30
2018-10-18T10:49:02.646Z,12.00
2018-10-18T10:50:02.686Z,12.40
2018-10-18T10:51:02.654Z,13.70
2018-10-18T10:52:02.821Z,11.00
2018-10-18T10:53:02.539Z,12.50
2018-10-18T10:54:02.735Z,11.70
2018-10-18T10:55:02.486Z,13.40
2018-10-18T10:56:02.649Z,12.80
2018-10-18T10:57:02.518Z,12.90
2018-10-18T10:58:02.619Z,13.30
2018-10-18T10:59:02.536Z,19.60
2018-10-18T11:00:02.550Z,16.20
2018-10-18T11:01:02.338Z,11.90
2018-10-18T11:02:02.427Z,12.40
2018-10-18T11:03:02.637Z,18.50
2018-10-18T11:04:03.423Z,13.70
2018-10-18T11:05:02.240Z,13.60
2018-10-18T11:06:02.389Z,14.10
2018-10-18T11:07:02.181Z,13.80
2018-10-18T11:08:02.313Z,12.90
2018-10-18T11:09:02.201Z,56.10
2018-10-18T11:10:02.219Z,31.50
2018-10-18T11:11:02.096Z,25.70
2018-10-18T11:12:02.198Z,29.90
2018-10-18T11:13:02.045Z,19.40
2018-10-18T11:14:02.104Z,20.10
2018-10-18T11:15:02.074Z,35.00
2018-10-18T11:16:02.024Z,14.30
2018-10-18T11:17:01.981Z,11.70
2018-10-18T11:18:02.050Z,13.60
2018-10-18T11:19:01.887Z,12.90
2018-10-18T11:20:02.050Z,12.90
2018-10-18T11:20:48.301Z,10.60
2018-10-18T11:21:48.372Z,10.80
2018-10-18T11:22:48.227Z,9.60
2018-10-18T11:23:48.241Z,9.30
2018-10-18T11:24:48.285Z,10.40
2018-10-18T11:25:48.249Z,12.10
2018-10-18T11:26:48.133Z,10.30
2018-10-18T11:27:48.164Z,10.50
2018-10-18T11:28:48.081Z,8.20
2018-10-18T11:29:48.069Z,8.90
2018-10-18T11:30:48.034Z,7.20
2018-10-18T11:31:48.085Z,8.10
2018-10-18T11:32:47.983Z,6.20
2018-10-18T11:33:47.991Z,6.30
2018-10-18T11:34:47.920Z,6.80
2018-10-18T11:35:48.006Z,5.40
2018-10-18T11:36:47.886Z,5.30
2018-10-18T11:37:47.857Z,7.00
2018-10-18T11:38:47.831Z,7.20
2018-10-18T11:39:47.799Z,6.70
2018-10-18T11:40:47.834Z,5.10
2018-10-18T11:41:47.753Z,5.00
2018-10-18T11:42:47.797Z,5.80
2018-10-18T11:43:47.706Z,5.90
2018-10-18T11:44:47.761Z,5.10
2018-10-18T11:45:47.656Z,5.00
2018-10-18T11:46:47.668Z,4.00
2018-10-18T11:47:47.605Z,4.50
2018-10-18T11:48:47.688Z,3.70
2018-10-18T11:49:47.555Z,3.60
2018-10-18T11:50:47.593Z,5.50
2018-10-18T11:51:47.594Z,4.20
2018-10-18T11:52:47.501Z,4.60
2018-10-18T11:53:47.464Z,5.50
2018-10-18T11:54:47.526Z,4.70
2018-10-18T11:55:47.404Z,4.30
2018-10-18T11:56:47.427Z,4.50
2018-10-18T11:57:47.348Z,4.20
2018-10-18T11:58:47.339Z,3.20
2018-10-18T11:59:47.298Z,5.40
2018-10-18T12:00:47.355Z,3.50
2018-10-18T12:01:47.255Z,4.20
2018-10-18T12:02:47.354Z,5.90
2018-10-18T12:03:47.201Z,5.70
2018-10-18T12:04:47.295Z,4.00
2018-10-18T12:05:47.147Z,4.00
2018-10-18T12:06:47.138Z,5.50
2018-10-18T12:07:47.112Z,3.20
2018-10-18T12:08:47.132Z,3.90
2018-10-18T12:09:47.082Z,3.90
2018-10-18T12:10:33.318Z,8.90
2018-10-18T12:11:33.241Z,5.20
2018-10-18T12:12:33.316Z,3.70
2018-10-18T12:13:33.184Z,3.80
2018-10-18T12:14:33.249Z,4.80
2018-10-18T12:15:33.137Z,5.10
2018-10-18T12:16:33.143Z,30.60
2018-10-18T12:17:33.077Z,5.70
2018-10-18T12:18:33.169Z,3.40
2018-10-18T12:19:33.035Z,3.40
2018-10-18T12:20:33.088Z,7.00
2018-10-18T12:21:32.968Z,21.90
2018-10-18T12:22:33.075Z,9.60
2018-10-18T12:23:32.938Z,6.10
2018-10-18T12:24:19.434Z,10.20
2018-10-18T12:25:19.487Z,10.10
2018-10-18T12:26:19.380Z,4.40
2018-10-18T12:27:19.439Z,5.40
2018-10-18T12:28:19.317Z,5.60
2018-10-18T12:29:19.412Z,4.20
2018-10-18T12:30:19.274Z,4.70
2018-10-18T12:31:19.330Z,5.80
2018-10-18T12:32:19.224Z,5.20
2018-10-18T12:33:19.331Z,4.40
2018-10-18T12:34:19.168Z,5.70
2018-10-18T12:35:19.264Z,4.60
2018-10-18T12:36:19.129Z,4.00
2018-10-18T12:37:19.156Z,4.80
2018-10-18T12:38:19.068Z,4.30
2018-10-18T12:39:19.180Z,4.90
2018-10-18T12:40:19.058Z,4.40
2018-10-18T12:41:21.266Z,4.20
2018-10-18T12:42:18.980Z,4.70
2018-10-18T12:43:20.020Z,5.60
2018-10-18T12:44:19.011Z,6.80
2018-10-18T12:45:20.028Z,6.00
2018-10-18T12:46:18.868Z,5.10
2018-10-18T12:47:18.924Z,6.50
2018-10-18T12:48:18.947Z,6.80
2018-10-18T12:49:18.928Z,7.20
2018-10-18T12:50:18.766Z,5.90
2018-10-18T12:51:18.843Z,6.30
2018-10-18T12:52:18.723Z,7.20
2018-10-18T12:53:18.751Z,6.00
2018-10-18T12:54:18.732Z,5.20
2018-10-18T12:55:18.662Z,4.70
2018-10-18T12:56:18.678Z,6.30
2018-10-18T12:57:18.673Z,4.40
2018-10-18T12:58:18.563Z,4.30
2018-10-18T12:59:18.691Z,3.20
2018-10-18T13:00:18.541Z,3.00
2018-10-18T13:01:19.627Z,4.60
2018-10-18T13:02:18.473Z,3.70
2018-10-18T13:03:18.508Z,4.30
2018-10-18T13:04:18.422Z,3.30
2018-10-18T13:05:18.525Z,4.90
2018-10-18T13:06:18.368Z,5.70
2018-10-18T13:07:18.434Z,6.30
2018-10-18T13:08:18.353Z,4.80
2018-10-18T13:09:18.452Z,5.10
2018-10-18T13:10:18.264Z,5.50
2018-10-18T13:11:18.360Z,7.10
2018-10-18T13:12:18.318Z,9.00
2018-10-18T13:13:18.273Z,6.20
2018-10-18T13:14:18.286Z,8.30
2018-10-18T13:15:18.288Z,6.50
2018-10-18T13:16:18.115Z,7.50
2018-10-18T13:17:18.214Z,7.40